sensor_id;sensor_type;location;lat;lon;timestamp;P1;durP1;ratioP1;P2;durP2;ratioP2
53267;SDS011;39156;51.176;6.738;2023-03-22T00:00:43;40.95;;;38.55;;
53267;SDS011;39156;51.176;6.738;2023-03-22T00:03:10;40.13;;;37.90;;
53267;SDS011;39156;51.176;6.738;2023-03-22T00:05:35;40.03;;;37.63;;
53267;SDS011;39156;51.176;6.738;2023-03-22T00:08:01;39.90;;;37.60;;
53267;SDS011;39156;51.176;6.738;2023-03-22T00:10:31;41.92;;;39.40;;
53267;SDS011;39156;51.176;6.738;2023-03-22T00:12:58;41.00;;;38.60;;
53267;SDS011;39156;51.176;6.738;2023-03-22T00:17:53;41.38;;;38.53;;
53267;SDS011;39156;51.176;6.738;2023-03-22T00:20:23;39.85;;;37.45;;
53267;SDS011;39156;51.176;6.738;2023-03-22T00:22:50;40.70;;;38.25;;
53267;SDS011;39156;51.176;6.738;2023-03-22T00:25:16;40.65;;;38.08;;
53267;SDS011;39156;51.176;6.738;2023-03-22T00:27:42;41.50;;;38.90;;
53267;SDS011;39156;51.176;6.738;2023-03-22T00:30:09;40.67;;;38.30;;
53267;SDS011;39156;51.176;6.738;2023-03-22T00:32:36;39.63;;;37.35;;
53267;SDS011;39156;51.176;6.738;2023-03-22T00:35:05;40.75;;;38.20;;
53267;SDS011;39156;51.176;6.738;2023-03-22T00:37:31;40.10;;;37.83;;
53267;SDS011;39156;51.176;6.738;2023-03-22T00:39:58;41.80;;;39.15;;
53267;SDS011;39156;51.176;6.738;2023-03-22T00:42:25;40.80;;;38.20;;
53267;SDS011;39156;51.176;6.738;2023-03-22T00:44:50;41.28;;;38.85;;
53267;SDS011;39156;51.176;6.738;2023-03-22T00:47:16;42.03;;;39.30;;
53267;SDS011;39156;51.176;6.738;2023-03-22T00:49:42;41.72;;;39.30;;
53267;SDS011;39156;51.176;6.738;2023-03-22T00:52:07;40.60;;;38.03;;
53267;SDS011;39156;51.176;6.738;2023-03-22T00:54:33;41.53;;;38.90;;
53267;SDS011;39156;51.176;6.738;2023-03-22T00:56:59;42.15;;;39.65;;
53267;SDS011;39156;51.176;6.738;2023-03-22T00:59:25;41.78;;;39.17;;
53267;SDS011;39156;51.176;6.738;2023-03-22T01:01:53;41.45;;;39.00;;
53267;SDS011;39156;51.176;6.738;2023-03-22T01:04:20;43.22;;;40.63;;
53267;SDS011;39156;51.176;6.738;2023-03-22T01:06:49;40.95;;;38.45;;
53267;SDS011;39156;51.176;6.738;2023-03-22T01:09:25;42.13;;;39.50;;
53267;SDS011;39156;51.176;6.738;2023-03-22T01:11:58;42.78;;;40.08;;
53267;SDS011;39156;51.176;6.738;2023-03-22T01:14:26;42.22;;;39.67;;
53267;SDS011;39156;51.176;6.738;2023-03-22T01:16:52;43.05;;;40.45;;
53267;SDS011;39156;51.176;6.738;2023-03-22T01:19:21;42.53;;;39.83;;
53267;SDS011;39156;51.176;6.738;2023-03-22T01:21:48;41.15;;;38.65;;
53267;SDS011;39156;51.176;6.738;2023-03-22T01:24:14;41.72;;;39.08;;
53267;SDS011;39156;51.176;6.738;2023-03-22T01:26:40;43.45;;;40.70;;
53267;SDS011;39156;51.176;6.738;2023-03-22T01:29:06;41.83;;;39.40;;
53267;SDS011;39156;51.176;6.738;2023-03-22T01:31:32;42.50;;;39.90;;
53267;SDS011;39156;51.176;6.738;2023-03-22T01:33:58;43.67;;;40.78;;
53267;SDS011;39156;51.176;6.738;2023-03-22T01:36:24;42.80;;;40.38;;
53267;SDS011;39156;51.176;6.738;2023-03-22T01:38:49;43.00;;;40.30;;
53267;SDS011;39156;51.176;6.738;2023-03-22T01:41:15;42.10;;;39.60;;
53267;SDS011;39156;51.176;6.738;2023-03-22T01:43:41;42.10;;;39.50;;
53267;SDS011;39156;51.176;6.738;2023-03-22T01:46:07;41.83;;;39.33;;
53267;SDS011;39156;51.176;6.738;2023-03-22T01:48:34;42.20;;;39.60;;
53267;SDS011;39156;51.176;6.738;2023-03-22T01:51:13;44.25;;;41.47;;
53267;SDS011;39156;51.176;6.738;2023-03-22T01:53:48;41.70;;;39.30;;
53267;SDS011;39156;51.176;6.738;2023-03-22T01:56:27;43.72;;;41.15;;
53267;SDS011;39156;51.176;6.738;2023-03-22T01:58:57;42.60;;;40.00;;
53267;SDS011;39156;51.176;6.738;2023-03-22T02:01:24;42.25;;;39.85;;
53267;SDS011;39156;51.176;6.738;2023-03-22T02:03:54;42.40;;;39.88;;
53267;SDS011;39156;51.176;6.738;2023-03-22T02:06:32;44.40;;;41.70;;
53267;SDS011;39156;51.176;6.738;2023-03-22T02:09:05;41.78;;;39.28;;
53267;SDS011;39156;51.176;6.738;2023-03-22T02:11:35;42.17;;;39.67;;
53267;SDS011;39156;51.176;6.738;2023-03-22T02:23:18;44.15;;;41.35;;
53267;SDS011;39156;51.176;6.738;2023-03-22T02:32:10;41.97;;;39.42;;
53267;SDS011;39156;51.176;6.738;2023-03-22T02:38:20;43.75;;;41.05;;
53267;SDS011;39156;51.176;6.738;2023-03-22T02:44:04;44.90;;;42.15;;
53267;SDS011;39156;51.176;6.738;2023-03-22T02:46:35;44.58;;;41.88;;
53267;SDS011;39156;51.176;6.738;2023-03-22T02:49:24;42.15;;;39.65;;
53267;SDS011;39156;51.176;6.738;2023-03-22T02:51:59;41.47;;;38.88;;
53267;SDS011;39156;51.176;6.738;2023-03-22T02:54:39;42.30;;;39.70;;
53267;SDS011;39156;51.176;6.738;2023-03-22T02:57:24;42.03;;;39.47;;
53267;SDS011;39156;51.176;6.738;2023-03-22T03:00:06;45.40;;;42.53;;
53267;SDS011;39156;51.176;6.738;2023-03-22T03:02:38;44.17;;;41.40;;
53267;SDS011;39156;51.176;6.738;2023-03-22T03:05:09;43.55;;;40.92;;
53267;SDS011;39156;51.176;6.738;2023-03-22T03:07:36;42.25;;;39.33;;
53267;SDS011;39156;51.176;6.738;2023-03-22T03:10:06;42.75;;;40.15;;
53267;SDS011;39156;51.176;6.738;2023-03-22T03:14:58;44.00;;;41.42;;
53267;SDS011;39156;51.176;6.738;2023-03-22T03:20:21;43.50;;;40.80;;
53267;SDS011;39156;51.176;6.738;2023-03-22T03:23:08;44.50;;;41.55;;
53267;SDS011;39156;51.176;6.738;2023-03-22T03:25:54;45.17;;;42.08;;
53267;SDS011;39156;51.176;6.738;2023-03-22T03:28:51;43.03;;;40.33;;
53267;SDS011;39156;51.176;6.738;2023-03-22T03:31:40;44.50;;;41.58;;
53267;SDS011;39156;51.176;6.738;2023-03-22T03:34:24;43.28;;;40.70;;
53267;SDS011;39156;51.176;6.738;2023-03-22T03:37:01;45.58;;;42.60;;
53267;SDS011;39156;51.176;6.738;2023-03-22T03:40:25;43.63;;;41.13;;
53267;SDS011;39156;51.176;6.738;2023-03-22T03:42:55;43.20;;;40.50;;
53267;SDS011;39156;51.176;6.738;2023-03-22T03:45:24;41.05;;;38.70;;
53267;SDS011;39156;51.176;6.738;2023-03-22T03:47:51;44.35;;;41.60;;
53267;SDS011;39156;51.176;6.738;2023-03-22T03:50:21;43.92;;;41.20;;
53267;SDS011;39156;51.176;6.738;2023-03-22T03:52:49;43.50;;;40.80;;
53267;SDS011;39156;51.176;6.738;2023-03-22T03:55:15;43.70;;;40.83;;
53267;SDS011;39156;51.176;6.738;2023-03-22T03:57:41;44.30;;;41.55;;
53267;SDS011;39156;51.176;6.738;2023-03-22T04:00:07;42.90;;;40.40;;
53267;SDS011;39156;51.176;6.738;2023-03-22T04:02:34;44.13;;;41.42;;
53267;SDS011;39156;51.176;6.738;2023-03-22T04:04:59;45.22;;;42.33;;
53267;SDS011;39156;51.176;6.738;2023-03-22T04:07:25;41.95;;;39.45;;
53267;SDS011;39156;51.176;6.738;2023-03-22T04:09:51;46.80;;;43.50;;
53267;SDS011;39156;51.176;6.738;2023-03-22T04:12:17;43.38;;;40.67;;
53267;SDS011;39156;51.176;6.738;2023-03-22T04:14:42;44.60;;;41.70;;
53267;SDS011;39156;51.176;6.738;2023-03-22T04:17:08;44.78;;;41.97;;
53267;SDS011;39156;51.176;6.738;2023-03-22T04:19:34;43.40;;;40.80;;
53267;SDS011;39156;51.176;6.738;2023-03-22T04:22:00;44.72;;;41.88;;
53267;SDS011;39156;51.176;6.738;2023-03-22T04:24:26;45.20;;;42.42;;
53267;SDS011;39156;51.176;6.738;2023-03-22T04:26:52;43.95;;;41.35;;
53267;SDS011;39156;51.176;6.738;2023-03-22T04:29:17;44.63;;;41.65;;
53267;SDS011;39156;51.176;6.738;2023-03-22T04:31:43;43.28;;;40.67;;
53267;SDS011;39156;51.176;6.738;2023-03-22T04:34:09;43.67;;;41.08;;
53267;SDS011;39156;51.176;6.738;2023-03-22T04:36:35;43.53;;;40.83;;
53267;SDS011;39156;51.176;6.738;2023-03-22T04:39:12;42.80;;;40.08;;
53267;SDS011;39156;51.176;6.738;2023-03-22T04:41:38;43.17;;;40.38;;
53267;SDS011;39156;51.176;6.738;2023-03-22T04:44:04;43.05;;;40.45;;
53267;SDS011;39156;51.176;6.738;2023-03-22T04:46:31;42.88;;;40.08;;
53267;SDS011;39156;51.176;6.738;2023-03-22T04:48:59;42.67;;;40.03;;
53267;SDS011;39156;51.176;6.738;2023-03-22T04:51:25;43.72;;;41.05;;
53267;SDS011;39156;51.176;6.738;2023-03-22T04:53:51;41.65;;;39.08;;
53267;SDS011;39156;51.176;6.738;2023-03-22T04:56:18;43.03;;;40.42;;
53267;SDS011;39156;51.176;6.738;2023-03-22T04:58:44;41.15;;;38.65;;
53267;SDS011;39156;51.176;6.738;2023-03-22T05:01:11;45.27;;;42.37;;
53267;SDS011;39156;51.176;6.738;2023-03-22T05:03:39;42.75;;;40.30;;
53267;SDS011;39156;51.176;6.738;2023-03-22T05:06:07;42.22;;;39.53;;
53267;SDS011;39156;51.176;6.738;2023-03-22T05:08:34;43.30;;;40.63;;
53267;SDS011;39156;51.176;6.738;2023-03-22T05:11:07;41.53;;;39.10;;
53267;SDS011;39156;51.176;6.738;2023-03-22T05:13:39;41.30;;;38.88;;
53267;SDS011;39156;51.176;6.738;2023-03-22T05:16:05;41.60;;;39.28;;
53267;SDS011;39156;51.176;6.738;2023-03-22T05:18:31;40.33;;;37.92;;
53267;SDS011;39156;51.176;6.738;2023-03-22T05:20:58;42.17;;;39.33;;
53267;SDS011;39156;51.176;6.738;2023-03-22T05:23:28;40.95;;;38.35;;
53267;SDS011;39156;51.176;6.738;2023-03-22T05:25:53;42.42;;;39.97;;
53267;SDS011;39156;51.176;6.738;2023-03-22T05:28:22;42.63;;;40.08;;
53267;SDS011;39156;51.176;6.738;2023-03-22T05:30:48;42.28;;;39.67;;
53267;SDS011;39156;51.176;6.738;2023-03-22T05:35:45;44.47;;;41.78;;
53267;SDS011;39156;51.176;6.738;2023-03-22T05:38:11;41.33;;;38.88;;
53267;SDS011;39156;51.176;6.738;2023-03-22T05:40:37;41.05;;;38.65;;
53267;SDS011;39156;51.176;6.738;2023-03-22T05:43:03;42.35;;;39.58;;
53267;SDS011;39156;51.176;6.738;2023-03-22T05:45:28;43.03;;;40.40;;
53267;SDS011;39156;51.176;6.738;2023-03-22T05:47:56;42.15;;;39.65;;
53267;SDS011;39156;51.176;6.738;2023-03-22T05:50:22;41.78;;;39.35;;
53267;SDS011;39156;51.176;6.738;2023-03-22T05:52:48;41.72;;;39.15;;
53267;SDS011;39156;51.176;6.738;2023-03-22T05:55:16;42.72;;;39.85;;
53267;SDS011;39156;51.176;6.738;2023-03-22T05:57:43;42.45;;;39.90;;
53267;SDS011;39156;51.176;6.738;2023-03-22T06:02:40;40.58;;;38.15;;
53267;SDS011;39156;51.176;6.738;2023-03-22T06:05:07;41.75;;;39.38;;
53267;SDS011;39156;51.176;6.738;2023-03-22T06:07:37;43.25;;;40.72;;
53267;SDS011;39156;51.176;6.738;2023-03-22T06:10:04;41.58;;;38.88;;
53267;SDS011;39156;51.176;6.738;2023-03-22T06:12:32;40.83;;;38.30;;
53267;SDS011;39156;51.176;6.738;2023-03-22T06:14:58;43.42;;;40.83;;
53267;SDS011;39156;51.176;6.738;2023-03-22T06:17:24;43.78;;;40.92;;
53267;SDS011;39156;51.176;6.738;2023-03-22T06:19:50;44.13;;;41.50;;
53267;SDS011;39156;51.176;6.738;2023-03-22T06:22:16;41.05;;;38.72;;
53267;SDS011;39156;51.176;6.738;2023-03-22T06:24:43;41.25;;;38.85;;
53267;SDS011;39156;51.176;6.738;2023-03-22T06:27:09;41.75;;;39.05;;
53267;SDS011;39156;51.176;6.738;2023-03-22T06:29:35;43.03;;;40.33;;
53267;SDS011;39156;51.176;6.738;2023-03-22T06:32:00;44.80;;;42.10;;
53267;SDS011;39156;51.176;6.738;2023-03-22T06:34:27;43.92;;;41.15;;
53267;SDS011;39156;51.176;6.738;2023-03-22T06:36:53;42.50;;;39.90;;
53267;SDS011;39156;51.176;6.738;2023-03-22T06:39:19;44.05;;;41.30;;
53267;SDS011;39156;51.176;6.738;2023-03-22T06:41:45;42.83;;;40.08;;
53267;SDS011;39156;51.176;6.738;2023-03-22T06:44:11;43.33;;;40.65;;
53267;SDS011;39156;51.176;6.738;2023-03-22T06:46:37;42.03;;;39.40;;
53267;SDS011;39156;51.176;6.738;2023-03-22T06:49:03;43.53;;;41.03;;
53267;SDS011;39156;51.176;6.738;2023-03-22T06:51:29;42.38;;;39.85;;
53267;SDS011;39156;51.176;6.738;2023-03-22T06:53:55;42.63;;;39.87;;
53267;SDS011;39156;51.176;6.738;2023-03-22T06:56:21;40.67;;;38.15;;
53267;SDS011;39156;51.176;6.738;2023-03-22T06:58:47;40.75;;;38.35;;
53267;SDS011;39156;51.176;6.738;2023-03-22T07:01:13;42.55;;;39.95;;
53267;SDS011;39156;51.176;6.738;2023-03-22T07:03:38;39.38;;;37.10;;
53267;SDS011;39156;51.176;6.738;2023-03-22T07:06:05;42.40;;;39.90;;
53267;SDS011;39156;51.176;6.738;2023-03-22T07:08:33;41.20;;;38.45;;
53267;SDS011;39156;51.176;6.738;2023-03-22T07:11:00;40.67;;;38.10;;
53267;SDS011;39156;51.176;6.738;2023-03-22T07:13:27;38.53;;;36.17;;
53267;SDS011;39156;51.176;6.738;2023-03-22T07:15:56;39.95;;;37.63;;
53267;SDS011;39156;51.176;6.738;2023-03-22T07:18:24;38.42;;;36.13;;
53267;SDS011;39156;51.176;6.738;2023-03-22T07:20:50;37.83;;;35.40;;
53267;SDS011;39156;51.176;6.738;2023-03-22T07:23:16;36.08;;;33.95;;
53267;SDS011;39156;51.176;6.738;2023-03-22T07:25:43;35.50;;;33.40;;
53267;SDS011;39156;51.176;6.738;2023-03-22T07:28:10;35.95;;;33.85;;
53267;SDS011;39156;51.176;6.738;2023-03-22T07:30:36;36.30;;;33.90;;
53267;SDS011;39156;51.176;6.738;2023-03-22T07:33:03;33.67;;;31.77;;
53267;SDS011;39156;51.176;6.738;2023-03-22T07:35:30;35.83;;;33.53;;
53267;SDS011;39156;51.176;6.738;2023-03-22T07:37:56;34.90;;;32.83;;
53267;SDS011;39156;51.176;6.738;2023-03-22T07:40:22;35.80;;;33.40;;
53267;SDS011;39156;51.176;6.738;2023-03-22T07:42:48;34.77;;;32.73;;
53267;SDS011;39156;51.176;6.738;2023-03-22T07:45:15;34.70;;;32.50;;
53267;SDS011;39156;51.176;6.738;2023-03-22T07:47:42;33.80;;;31.73;;
53267;SDS011;39156;51.176;6.738;2023-03-22T07:50:08;34.20;;;32.13;;
53267;SDS011;39156;51.176;6.738;2023-03-22T07:52:36;36.78;;;34.65;;
53267;SDS011;39156;51.176;6.738;2023-03-22T07:55:05;36.00;;;33.85;;
53267;SDS011;39156;51.176;6.738;2023-03-22T07:57:32;37.92;;;35.55;;
53267;SDS011;39156;51.176;6.738;2023-03-22T08:00:00;33.92;;;31.92;;
53267;SDS011;39156;51.176;6.738;2023-03-22T08:02:31;36.60;;;34.00;;
53267;SDS011;39156;51.176;6.738;2023-03-22T08:05:01;36.00;;;33.63;;
53267;SDS011;39156;51.176;6.738;2023-03-22T08:07:27;37.23;;;34.90;;
53267;SDS011;39156;51.176;6.738;2023-03-22T08:09:54;35.85;;;33.72;;
53267;SDS011;39156;51.176;6.738;2023-03-22T08:12:20;36.63;;;34.25;;
53267;SDS011;39156;51.176;6.738;2023-03-22T08:14:46;35.65;;;33.28;;
53267;SDS011;39156;51.176;6.738;2023-03-22T08:17:14;35.35;;;33.28;;
53267;SDS011;39156;51.176;6.738;2023-03-22T08:19:41;34.92;;;32.83;;
53267;SDS011;39156;51.176;6.738;2023-03-22T08:22:07;33.90;;;31.88;;
53267;SDS011;39156;51.176;6.738;2023-03-22T08:24:32;34.60;;;32.70;;
53267;SDS011;39156;51.176;6.738;2023-03-22T08:26:58;35.95;;;33.85;;
53267;SDS011;39156;51.176;6.738;2023-03-22T08:29:24;35.33;;;33.33;;
53267;SDS011;39156;51.176;6.738;2023-03-22T08:31:50;35.60;;;33.60;;
53267;SDS011;39156;51.176;6.738;2023-03-22T08:34:16;36.63;;;34.33;;
53267;SDS011;39156;51.176;6.738;2023-03-22T08:36:42;37.13;;;34.85;;
53267;SDS011;39156;51.176;6.738;2023-03-22T08:39:07;36.55;;;34.40;;
53267;SDS011;39156;51.176;6.738;2023-03-22T08:41:33;37.80;;;35.63;;
53267;SDS011;39156;51.176;6.738;2023-03-22T08:43:59;36.42;;;34.13;;
53267;SDS011;39156;51.176;6.738;2023-03-22T08:46:25;34.07;;;32.07;;
53267;SDS011;39156;51.176;6.738;2023-03-22T08:48:51;36.45;;;34.25;;
53267;SDS011;39156;51.176;6.738;2023-03-22T08:51:18;35.65;;;33.45;;
53267;SDS011;39156;51.176;6.738;2023-03-22T08:53:47;34.85;;;32.95;;
53267;SDS011;39156;51.176;6.738;2023-03-22T08:56:13;33.60;;;31.75;;
53267;SDS011;39156;51.176;6.738;2023-03-22T08:58:41;35.28;;;33.30;;
53267;SDS011;39156;51.176;6.738;2023-03-22T09:01:14;36.00;;;33.92;;
53267;SDS011;39156;51.176;6.738;2023-03-22T09:03:42;32.88;;;30.98;;
53267;SDS011;39156;51.176;6.738;2023-03-22T09:06:08;32.45;;;30.63;;
53267;SDS011;39156;51.176;6.738;2023-03-22T09:08:35;32.95;;;31.13;;
53267;SDS011;39156;51.176;6.738;2023-03-22T09:11:01;31.73;;;29.73;;
53267;SDS011;39156;51.176;6.738;2023-03-22T09:13:27;32.08;;;30.27;;
53267;SDS011;39156;51.176;6.738;2023-03-22T09:15:54;31.42;;;29.63;;
53267;SDS011;39156;51.176;6.738;2023-03-22T09:18:20;31.65;;;29.73;;
53267;SDS011;39156;51.176;6.738;2023-03-22T09:20:48;31.10;;;29.15;;
53267;SDS011;39156;51.176;6.738;2023-03-22T09:23:15;30.75;;;29.00;;
53267;SDS011;39156;51.176;6.738;2023-03-22T09:25:44;31.27;;;29.13;;
53267;SDS011;39156;51.176;6.738;2023-03-22T09:28:11;31.55;;;29.65;;
53267;SDS011;39156;51.176;6.738;2023-03-22T09:30:37;32.17;;;30.08;;
53267;SDS011;39156;51.176;6.738;2023-03-22T09:33:03;32.72;;;30.95;;
53267;SDS011;39156;51.176;6.738;2023-03-22T09:35:30;30.63;;;28.85;;
53267;SDS011;39156;51.176;6.738;2023-03-22T09:37:57;31.30;;;29.52;;
53267;SDS011;39156;51.176;6.738;2023-03-22T09:40:24;32.10;;;30.40;;
53267;SDS011;39156;51.176;6.738;2023-03-22T09:42:54;32.10;;;30.20;;
53267;SDS011;39156;51.176;6.738;2023-03-22T09:45:45;31.85;;;29.90;;
53267;SDS011;39156;51.176;6.738;2023-03-22T09:48:14;32.45;;;30.65;;
53267;SDS011;39156;51.176;6.738;2023-03-22T09:50:46;34.67;;;32.83;;
53267;SDS011;39156;51.176;6.738;2023-03-22T09:53:18;33.75;;;31.77;;
53267;SDS011;39156;51.176;6.738;2023-03-22T09:56:09;33.17;;;31.20;;
53267;SDS011;39156;51.176;6.738;2023-03-22T09:59:14;32.70;;;30.90;;
53267;SDS011;39156;51.176;6.738;2023-03-22T10:01:58;33.63;;;31.63;;
53267;SDS011;39156;51.176;6.738;2023-03-22T10:04:39;32.72;;;30.73;;
53267;SDS011;39156;51.176;6.738;2023-03-22T10:07:28;33.25;;;31.35;;
53267;SDS011;39156;51.176;6.738;2023-03-22T10:10:27;32.03;;;30.17;;
53267;SDS011;39156;51.176;6.738;2023-03-22T10:12:59;31.85;;;30.05;;
53267;SDS011;39156;51.176;6.738;2023-03-22T10:15:50;34.00;;;32.05;;
53267;SDS011;39156;51.176;6.738;2023-03-22T10:18:29;32.53;;;30.50;;
53267;SDS011;39156;51.176;6.738;2023-03-22T10:23:41;32.38;;;30.42;;
53267;SDS011;39156;51.176;6.738;2023-03-22T10:26:17;33.10;;;31.15;;
53267;SDS011;39156;51.176;6.738;2023-03-22T10:28:56;31.98;;;30.27;;
53267;SDS011;39156;51.176;6.738;2023-03-22T10:31:30;30.05;;;28.38;;
53267;SDS011;39156;51.176;6.738;2023-03-22T10:33:58;32.20;;;30.30;;
53267;SDS011;39156;51.176;6.738;2023-03-22T10:36:39;33.17;;;31.27;;
53267;SDS011;39156;51.176;6.738;2023-03-22T10:39:20;33.90;;;31.90;;
53267;SDS011;39156;51.176;6.738;2023-03-22T10:41:55;33.65;;;31.60;;
53267;SDS011;39156;51.176;6.738;2023-03-22T10:44:28;33.20;;;31.30;;
53267;SDS011;39156;51.176;6.738;2023-03-22T10:47:00;32.42;;;30.65;;
53267;SDS011;39156;51.176;6.738;2023-03-22T10:49:32;32.60;;;30.70;;
53267;SDS011;39156;51.176;6.738;2023-03-22T10:52:16;32.80;;;30.90;;
53267;SDS011;39156;51.176;6.738;2023-03-22T10:55:12;32.25;;;30.55;;
53267;SDS011;39156;51.176;6.738;2023-03-22T10:57:49;33.95;;;30.95;;
53267;SDS011;39156;51.176;6.738;2023-03-22T11:00:45;34.22;;;31.88;;
53267;SDS011;39156;51.176;6.738;2023-03-22T11:11:21;33.63;;;31.67;;
53267;SDS011;39156;51.176;6.738;2023-03-22T11:19:33;34.28;;;32.20;;
53267;SDS011;39156;51.176;6.738;2023-03-22T11:22:01;33.40;;;31.60;;
53267;SDS011;39156;51.176;6.738;2023-03-22T11:24:31;33.60;;;31.70;;
53267;SDS011;39156;51.176;6.738;2023-03-22T11:30:37;33.70;;;31.73;;
53267;SDS011;39156;51.176;6.738;2023-03-22T11:32:58;35.53;;;33.53;;
53267;SDS011;39156;51.176;6.738;2023-03-22T11:35:32;34.58;;;32.67;;
53267;SDS011;39156;51.176;6.738;2023-03-22T11:38:02;35.40;;;33.55;;
53267;SDS011;39156;51.176;6.738;2023-03-22T11:40:30;32.80;;;30.60;;
53267;SDS011;39156;51.176;6.738;2023-03-22T11:43:19;37.20;;;35.10;;
53267;SDS011;39156;51.176;6.738;2023-03-22T11:45:55;36.40;;;33.88;;
53267;SDS011;39156;51.176;6.738;2023-03-22T11:48:23;32.85;;;30.95;;
53267;SDS011;39156;51.176;6.738;2023-03-22T11:50:52;33.63;;;31.75;;
53267;SDS011;39156;51.176;6.738;2023-03-22T11:53:23;34.40;;;32.60;;
53267;SDS011;39156;51.176;6.738;2023-03-22T11:55:52;34.80;;;32.80;;
53267;SDS011;39156;51.176;6.738;2023-03-22T11:58:22;34.78;;;32.85;;
53267;SDS011;39156;51.176;6.738;2023-03-22T12:01:03;34.58;;;32.55;;
53267;SDS011;39156;51.176;6.738;2023-03-22T12:06:02;34.55;;;32.65;;
53267;SDS011;39156;51.176;6.738;2023-03-22T12:08:46;33.38;;;31.35;;
53267;SDS011;39156;51.176;6.738;2023-03-22T12:11:24;33.17;;;31.27;;
53267;SDS011;39156;51.176;6.738;2023-03-22T12:14:13;32.83;;;30.95;;
53267;SDS011;39156;51.176;6.738;2023-03-22T12:16:47;35.33;;;32.83;;
53267;SDS011;39156;51.176;6.738;2023-03-22T12:22:25;33.38;;;31.50;;
53267;SDS011;39156;51.176;6.738;2023-03-22T12:25:16;33.85;;;32.05;;
53267;SDS011;39156;51.176;6.738;2023-03-22T12:27:50;33.90;;;32.10;;
53267;SDS011;39156;51.176;6.738;2023-03-22T12:30:28;34.80;;;32.65;;
53267;SDS011;39156;51.176;6.738;2023-03-22T12:33:03;34.00;;;32.00;;
53267;SDS011;39156;51.176;6.738;2023-03-22T12:35:41;34.40;;;32.40;;
53267;SDS011;39156;51.176;6.738;2023-03-22T12:38:13;37.30;;;35.30;;
53267;SDS011;39156;51.176;6.738;2023-03-22T12:41:42;35.30;;;33.50;;
53267;SDS011;39156;51.176;6.738;2023-03-22T12:44:23;34.53;;;32.40;;
53267;SDS011;39156;51.176;6.738;2023-03-22T12:47:02;34.30;;;32.40;;
53267;SDS011;39156;51.176;6.738;2023-03-22T12:49:38;34.75;;;32.85;;
53267;SDS011;39156;51.176;6.738;2023-03-22T12:54:53;34.70;;;32.90;;
53267;SDS011;39156;51.176;6.738;2023-03-22T12:57:20;33.28;;;31.48;;
53267;SDS011;39156;51.176;6.738;2023-03-22T12:59:48;33.67;;;31.87;;
53267;SDS011;39156;51.176;6.738;2023-03-22T13:02:22;34.75;;;32.70;;
53267;SDS011;39156;51.176;6.738;2023-03-22T13:05:00;34.08;;;32.28;;
53267;SDS011;39156;51.176;6.738;2023-03-22T13:07:35;36.28;;;34.10;;
53267;SDS011;39156;51.176;6.738;2023-03-22T13:16:13;35.20;;;33.20;;
53267;SDS011;39156;51.176;6.738;2023-03-22T13:23:54;36.55;;;34.38;;
53267;SDS011;39156;51.176;6.738;2023-03-22T13:26:34;35.28;;;33.25;;
53267;SDS011;39156;51.176;6.738;2023-03-22T13:29:16;35.33;;;33.45;;
53267;SDS011;39156;51.176;6.738;2023-03-22T13:34:55;33.90;;;32.08;;
53267;SDS011;39156;51.176;6.738;2023-03-22T13:37:29;34.35;;;32.25;;
53267;SDS011;39156;51.176;6.738;2023-03-22T13:40:13;34.92;;;32.83;;
53267;SDS011;39156;51.176;6.738;2023-03-22T13:42:53;36.80;;;34.28;;
53267;SDS011;39156;51.176;6.738;2023-03-22T13:56:33;35.85;;;33.72;;
53267;SDS011;39156;51.176;6.738;2023-03-22T13:59:26;37.00;;;34.83;;
53267;SDS011;39156;51.176;6.738;2023-03-22T14:02:26;36.72;;;33.88;;
53267;SDS011;39156;51.176;6.738;2023-03-22T14:05:13;35.47;;;33.35;;
53267;SDS011;39156;51.176;6.738;2023-03-22T14:07:43;37.13;;;35.03;;
53267;SDS011;39156;51.176;6.738;2023-03-22T14:16:07;36.65;;;34.55;;
53267;SDS011;39156;51.176;6.738;2023-03-22T14:18:44;36.40;;;34.38;;
53267;SDS011;39156;51.176;6.738;2023-03-22T14:21:14;36.70;;;34.70;;
53267;SDS011;39156;51.176;6.738;2023-03-22T14:23:52;35.88;;;33.80;;
53267;SDS011;39156;51.176;6.738;2023-03-22T14:26:21;35.05;;;33.17;;
53267;SDS011;39156;51.176;6.738;2023-03-22T14:28:52;35.00;;;32.97;;
53267;SDS011;39156;51.176;6.738;2023-03-22T14:31:27;34.00;;;32.00;;
53267;SDS011;39156;51.176;6.738;2023-03-22T14:33:54;35.50;;;32.90;;
53267;SDS011;39156;51.176;6.738;2023-03-22T14:36:32;36.03;;;34.03;;
53267;SDS011;39156;51.176;6.738;2023-03-22T14:39:09;36.35;;;34.25;;
53267;SDS011;39156;51.176;6.738;2023-03-22T14:41:57;35.92;;;33.63;;
53267;SDS011;39156;51.176;6.738;2023-03-22T14:44:34;34.95;;;33.05;;
53267;SDS011;39156;51.176;6.738;2023-03-22T14:47:10;34.50;;;32.67;;
53267;SDS011;39156;51.176;6.738;2023-03-22T14:49:41;33.85;;;32.05;;
53267;SDS011;39156;51.176;6.738;2023-03-22T14:52:20;35.60;;;33.67;;
53267;SDS011;39156;51.176;6.738;2023-03-22T14:54:58;32.60;;;30.90;;
53267;SDS011;39156;51.176;6.738;2023-03-22T14:57:37;34.17;;;31.88;;
53267;SDS011;39156;51.176;6.738;2023-03-22T15:00:11;34.67;;;32.67;;
53267;SDS011;39156;51.176;6.738;2023-03-22T15:02:44;33.95;;;32.13;;
53267;SDS011;39156;51.176;6.738;2023-03-22T15:05:15;34.58;;;32.55;;
53267;SDS011;39156;51.176;6.738;2023-03-22T15:07:46;34.28;;;32.22;;
53267;SDS011;39156;51.176;6.738;2023-03-22T15:10:23;35.45;;;33.53;;
53267;SDS011;39156;51.176;6.738;2023-03-22T15:12:52;35.30;;;33.28;;
53267;SDS011;39156;51.176;6.738;2023-03-22T15:15:22;34.75;;;32.60;;
53267;SDS011;39156;51.176;6.738;2023-03-22T15:17:56;35.80;;;33.80;;
53267;SDS011;39156;51.176;6.738;2023-03-22T15:20:28;35.15;;;33.15;;
53267;SDS011;39156;51.176;6.738;2023-03-22T15:22:58;35.97;;;33.95;;
53267;SDS011;39156;51.176;6.738;2023-03-22T15:25:53;35.40;;;33.17;;
53267;SDS011;39156;51.176;6.738;2023-03-22T15:28:22;34.10;;;32.10;;
53267;SDS011;39156;51.176;6.738;2023-03-22T15:30:52;36.10;;;34.10;;
53267;SDS011;39156;51.176;6.738;2023-03-22T15:35:52;34.70;;;32.75;;
53267;SDS011;39156;51.176;6.738;2023-03-22T15:38:22;34.35;;;32.30;;
53267;SDS011;39156;51.176;6.738;2023-03-22T15:40:55;35.10;;;33.10;;
53267;SDS011;39156;51.176;6.738;2023-03-22T15:43:27;33.05;;;31.35;;
53267;SDS011;39156;51.176;6.738;2023-03-22T15:51:35;37.40;;;34.58;;
53267;SDS011;39156;51.176;6.738;2023-03-22T15:54:11;34.33;;;32.50;;
53267;SDS011;39156;51.176;6.738;2023-03-22T15:56:47;34.90;;;33.10;;
53267;SDS011;39156;51.176;6.738;2023-03-22T15:59:23;35.05;;;33.15;;
53267;SDS011;39156;51.176;6.738;2023-03-22T16:01:55;35.40;;;33.33;;
53267;SDS011;39156;51.176;6.738;2023-03-22T16:04:24;34.65;;;32.65;;
53267;SDS011;39156;51.176;6.738;2023-03-22T16:06:57;37.88;;;35.72;;
53267;SDS011;39156;51.176;6.738;2023-03-22T16:09:22;35.63;;;33.73;;
53267;SDS011;39156;51.176;6.738;2023-03-22T16:11:48;33.55;;;31.75;;
53267;SDS011;39156;51.176;6.738;2023-03-22T16:14:15;34.15;;;32.22;;
53267;SDS011;39156;51.176;6.738;2023-03-22T16:16:42;34.22;;;32.08;;
53267;SDS011;39156;51.176;6.738;2023-03-22T16:19:10;36.17;;;34.22;;
53267;SDS011;39156;51.176;6.738;2023-03-22T16:21:36;33.25;;;31.42;;
53267;SDS011;39156;51.176;6.738;2023-03-22T16:24:03;33.28;;;31.45;;
53267;SDS011;39156;51.176;6.738;2023-03-22T16:26:30;35.13;;;33.13;;